sensor_id;sensor_type;location;lat;lon;timestamp;P1;durP1;ratioP1;P2;durP2;ratioP2
19593;SDS011;9944;48.240;16.478;2022-08-26T00:01:04;6.78;;;4.47;;
19593;SDS011;9944;48.240;16.478;2022-08-26T00:05:07;5.95;;;4.60;;
19593;SDS011;9944;48.240;16.478;2022-08-26T00:09:11;6.78;;;4.57;;
19593;SDS011;9944;48.240;16.478;2022-08-26T00:13:17;6.25;;;4.55;;
19593;SDS011;9944;48.240;16.478;2022-08-26T00:17:21;5.28;;;4.50;;
19593;SDS011;9944;48.240;16.478;2022-08-26T00:21:27;6.00;;;4.53;;
19593;SDS011;9944;48.240;16.478;2022-08-26T00:25:30;6.93;;;4.70;;
19593;SDS011;9944;48.240;16.478;2022-08-26T00:29:34;7.28;;;4.75;;
19593;SDS011;9944;48.240;16.478;2022-08-26T00:33:39;6.90;;;4.70;;
19593;SDS011;9944;48.240;16.478;2022-08-26T00:37:44;6.82;;;4.78;;
19593;SDS011;9944;48.240;16.478;2022-08-26T00:41:48;5.07;;;4.07;;
19593;SDS011;9944;48.240;16.478;2022-08-26T00:45:54;6.10;;;4.30;;
19593;SDS011;9944;48.240;16.478;2022-08-26T00:50:05;6.80;;;4.18;;
19593;SDS011;9944;48.240;16.478;2022-08-26T00:54:12;4.65;;;3.92;;
19593;SDS011;9944;48.240;16.478;2022-08-26T00:58:17;4.55;;;3.92;;
19593;SDS011;9944;48.240;16.478;2022-08-26T01:02:21;5.65;;;4.28;;
19593;SDS011;9944;48.240;16.478;2022-08-26T01:06:27;5.47;;;4.38;;
19593;SDS011;9944;48.240;16.478;2022-08-26T01:10:31;5.35;;;4.43;;
19593;SDS011;9944;48.240;16.478;2022-08-26T01:14:34;5.50;;;4.47;;
19593;SDS011;9944;48.240;16.478;2022-08-26T01:18:40;5.03;;;4.20;;
19593;SDS011;9944;48.240;16.478;2022-08-26T01:22:48;6.18;;;4.65;;
19593;SDS011;9944;48.240;16.478;2022-08-26T01:26:57;7.15;;;4.95;;
19593;SDS011;9944;48.240;16.478;2022-08-26T01:31:06;7.22;;;5.05;;
19593;SDS011;9944;48.240;16.478;2022-08-26T01:35:15;8.02;;;5.05;;
19593;SDS011;9944;48.240;16.478;2022-08-26T01:39:20;5.80;;;4.80;;
19593;SDS011;9944;48.240;16.478;2022-08-26T01:43:23;6.13;;;4.88;;
19593;SDS011;9944;48.240;16.478;2022-08-26T01:47:31;7.50;;;5.47;;
19593;SDS011;9944;48.240;16.478;2022-08-26T01:51:37;7.25;;;5.20;;
19593;SDS011;9944;48.240;16.478;2022-08-26T01:55:43;6.28;;;5.22;;
19593;SDS011;9944;48.240;16.478;2022-08-26T01:59:49;8.30;;;5.15;;
19593;SDS011;9944;48.240;16.478;2022-08-26T02:03:57;5.63;;;4.75;;
19593;SDS011;9944;48.240;16.478;2022-08-26T02:08:06;8.25;;;4.60;;
19593;SDS011;9944;48.240;16.478;2022-08-26T02:12:11;7.53;;;4.65;;
19593;SDS011;9944;48.240;16.478;2022-08-26T02:16:19;6.40;;;5.15;;
19593;SDS011;9944;48.240;16.478;2022-08-26T02:20:25;9.00;;;4.88;;
19593;SDS011;9944;48.240;16.478;2022-08-26T02:24:46;6.90;;;4.57;;
19593;SDS011;9944;48.240;16.478;2022-08-26T02:28:53;6.40;;;5.10;;
19593;SDS011;9944;48.240;16.478;2022-08-26T02:33:01;6.28;;;4.60;;
19593;SDS011;9944;48.240;16.478;2022-08-26T02:37:06;6.65;;;4.78;;
19593;SDS011;9944;48.240;16.478;2022-08-26T02:41:11;6.05;;;4.82;;
19593;SDS011;9944;48.240;16.478;2022-08-26T02:45:16;7.20;;;4.28;;
19593;SDS011;9944;48.240;16.478;2022-08-26T02:49:24;8.65;;;4.88;;
19593;SDS011;9944;48.240;16.478;2022-08-26T02:53:31;6.47;;;4.65;;
19593;SDS011;9944;48.240;16.478;2022-08-26T02:57:36;6.03;;;4.82;;
19593;SDS011;9944;48.240;16.478;2022-08-26T03:01:41;5.75;;;4.65;;
19593;SDS011;9944;48.240;16.478;2022-08-26T03:05:45;7.22;;;4.40;;
19593;SDS011;9944;48.240;16.478;2022-08-26T03:09:49;8.20;;;5.15;;
19593;SDS011;9944;48.240;16.478;2022-08-26T03:13:53;8.73;;;5.18;;
19593;SDS011;9944;48.240;16.478;2022-08-26T03:17:58;6.68;;;4.60;;
19593;SDS011;9944;48.240;16.478;2022-08-26T03:22:01;7.80;;;4.60;;
19593;SDS011;9944;48.240;16.478;2022-08-26T03:26:05;7.95;;;5.22;;
19593;SDS011;9944;48.240;16.478;2022-08-26T03:30:11;7.30;;;4.80;;
19593;SDS011;9944;48.240;16.478;2022-08-26T03:34:35;7.43;;;5.00;;
19593;SDS011;9944;48.240;16.478;2022-08-26T03:38:39;9.05;;;4.57;;
19593;SDS011;9944;48.240;16.478;2022-08-26T03:42:43;7.45;;;5.55;;
19593;SDS011;9944;48.240;16.478;2022-08-26T03:46:47;6.90;;;5.68;;
19593;SDS011;9944;48.240;16.478;2022-08-26T03:50:51;7.10;;;5.00;;
19593;SDS011;9944;48.240;16.478;2022-08-26T03:54:56;8.27;;;5.45;;
19593;SDS011;9944;48.240;16.478;2022-08-26T03:58:59;6.20;;;5.00;;
19593;SDS011;9944;48.240;16.478;2022-08-26T04:03:02;8.50;;;5.47;;
19593;SDS011;9944;48.240;16.478;2022-08-26T04:07:12;8.50;;;5.65;;
19593;SDS011;9944;48.240;16.478;2022-08-26T04:11:15;7.00;;;4.88;;
19593;SDS011;9944;48.240;16.478;2022-08-26T04:15:20;7.90;;;5.55;;
19593;SDS011;9944;48.240;16.478;2022-08-26T04:19:24;7.25;;;4.90;;
19593;SDS011;9944;48.240;16.478;2022-08-26T04:23:29;7.68;;;5.72;;
19593;SDS011;9944;48.240;16.478;2022-08-26T04:27:48;10.10;;;5.90;;
19593;SDS011;9944;48.240;16.478;2022-08-26T04:31:51;7.50;;;5.65;;
19593;SDS011;9944;48.240;16.478;2022-08-26T04:35:59;7.05;;;5.35;;
19593;SDS011;9944;48.240;16.478;2022-08-26T04:40:06;6.30;;;5.20;;
19593;SDS011;9944;48.240;16.478;2022-08-26T04:44:10;8.07;;;5.15;;
19593;SDS011;9944;48.240;16.478;2022-08-26T04:48:14;6.50;;;5.18;;
19593;SDS011;9944;48.240;16.478;2022-08-26T04:52:18;6.22;;;4.72;;
19593;SDS011;9944;48.240;16.478;2022-08-26T04:56:25;7.78;;;5.57;;
19593;SDS011;9944;48.240;16.478;2022-08-26T05:00:29;7.05;;;5.20;;
19593;SDS011;9944;48.240;16.478;2022-08-26T05:04:32;11.13;;;5.80;;
19593;SDS011;9944;48.240;16.478;2022-08-26T05:08:35;8.43;;;5.90;;
19593;SDS011;9944;48.240;16.478;2022-08-26T05:12:40;8.45;;;5.40;;
19593;SDS011;9944;48.240;16.478;2022-08-26T05:16:44;7.70;;;5.78;;
19593;SDS011;9944;48.240;16.478;2022-08-26T05:20:50;10.10;;;6.18;;
19593;SDS011;9944;48.240;16.478;2022-08-26T05:24:55;10.30;;;6.03;;
19593;SDS011;9944;48.240;16.478;2022-08-26T05:28:59;12.27;;;5.75;;
19593;SDS011;9944;48.240;16.478;2022-08-26T05:33:04;9.05;;;5.90;;
19593;SDS011;9944;48.240;16.478;2022-08-26T05:37:08;11.10;;;6.38;;
19593;SDS011;9944;48.240;16.478;2022-08-26T05:41:14;10.50;;;6.13;;
19593;SDS011;9944;48.240;16.478;2022-08-26T05:45:23;10.85;;;6.30;;
19593;SDS011;9944;48.240;16.478;2022-08-26T05:49:27;11.13;;;6.43;;
19593;SDS011;9944;48.240;16.478;2022-08-26T05:53:30;10.57;;;6.53;;
19593;SDS011;9944;48.240;16.478;2022-08-26T05:57:34;11.13;;;6.57;;
19593;SDS011;9944;48.240;16.478;2022-08-26T06:01:44;9.57;;;6.03;;
19593;SDS011;9944;48.240;16.478;2022-08-26T06:05:48;8.93;;;6.30;;
19593;SDS011;9944;48.240;16.478;2022-08-26T06:09:51;11.25;;;7.07;;
19593;SDS011;9944;48.240;16.478;2022-08-26T06:14:14;11.98;;;7.38;;
19593;SDS011;9944;48.240;16.478;2022-08-26T06:18:21;12.77;;;7.47;;
19593;SDS011;9944;48.240;16.478;2022-08-26T06:22:29;17.33;;;7.60;;
19593;SDS011;9944;48.240;16.478;2022-08-26T06:26:50;11.23;;;7.50;;
19593;SDS011;9944;48.240;16.478;2022-08-26T06:30:55;10.07;;;6.80;;
19593;SDS011;9944;48.240;16.478;2022-08-26T06:35:03;12.75;;;7.65;;
19593;SDS011;9944;48.240;16.478;2022-08-26T06:39:13;13.27;;;7.38;;
19593;SDS011;9944;48.240;16.478;2022-08-26T06:43:18;12.52;;;7.68;;
19593;SDS011;9944;48.240;16.478;2022-08-26T06:47:26;15.60;;;7.88;;
19593;SDS011;9944;48.240;16.478;2022-08-26T06:51:32;13.27;;;8.35;;
19593;SDS011;9944;48.240;16.478;2022-08-26T06:55:38;10.98;;;8.07;;
19593;SDS011;9944;48.240;16.478;2022-08-26T06:59:42;13.15;;;8.40;;
19593;SDS011;9944;48.240;16.478;2022-08-26T07:03:46;15.82;;;8.52;;
19593;SDS011;9944;48.240;16.478;2022-08-26T07:07:52;15.55;;;9.00;;
19593;SDS011;9944;48.240;16.478;2022-08-26T07:11:56;15.48;;;8.60;;
19593;SDS011;9944;48.240;16.478;2022-08-26T07:15:59;11.88;;;8.50;;
19593;SDS011;9944;48.240;16.478;2022-08-26T07:20:05;16.23;;;8.88;;
19593;SDS011;9944;48.240;16.478;2022-08-26T07:24:11;15.68;;;8.50;;
19593;SDS011;9944;48.240;16.478;2022-08-26T07:28:15;12.68;;;8.63;;
19593;SDS011;9944;48.240;16.478;2022-08-26T07:32:18;16.65;;;9.07;;
19593;SDS011;9944;48.240;16.478;2022-08-26T07:36:23;13.73;;;8.32;;
19593;SDS011;9944;48.240;16.478;2022-08-26T07:40:30;17.52;;;9.48;;
19593;SDS011;9944;48.240;16.478;2022-08-26T07:44:34;17.90;;;8.88;;
19593;SDS011;9944;48.240;16.478;2022-08-26T07:48:50;13.74;;;9.03;;
19593;SDS011;9944;48.240;16.478;2022-08-26T07:52:54;18.50;;;8.48;;
19593;SDS011;9944;48.240;16.478;2022-08-26T07:56:59;18.13;;;9.55;;
19593;SDS011;9944;48.240;16.478;2022-08-26T08:01:08;15.25;;;9.63;;
19593;SDS011;9944;48.240;16.478;2022-08-26T08:09:47;24.83;;;9.32;;
19593;SDS011;9944;48.240;16.478;2022-08-26T08:13:53;14.00;;;9.57;;
19593;SDS011;9944;48.240;16.478;2022-08-26T08:17:57;12.90;;;9.32;;
19593;SDS011;9944;48.240;16.478;2022-08-26T08:26:30;18.52;;;8.90;;
19593;SDS011;9944;48.240;16.478;2022-08-26T08:30:38;11.00;;;7.68;;
19593;SDS011;9944;48.240;16.478;2022-08-26T08:34:42;11.27;;;7.93;;
19593;SDS011;9944;48.240;16.478;2022-08-26T08:38:46;10.57;;;6.68;;
19593;SDS011;9944;48.240;16.478;2022-08-26T08:42:51;14.35;;;7.57;;
19593;SDS011;9944;48.240;16.478;2022-08-26T08:47:01;8.85;;;6.40;;
19593;SDS011;9944;48.240;16.478;2022-08-26T08:51:15;11.02;;;6.90;;
19593;SDS011;9944;48.240;16.478;2022-08-26T08:55:23;11.70;;;6.18;;
19593;SDS011;9944;48.240;16.478;2022-08-26T08:59:32;8.52;;;6.20;;
19593;SDS011;9944;48.240;16.478;2022-08-26T09:03:44;9.57;;;5.63;;
19593;SDS011;9944;48.240;16.478;2022-08-26T09:07:54;8.45;;;6.30;;
19593;SDS011;9944;48.240;16.478;2022-08-26T09:12:03;8.38;;;6.85;;
19593;SDS011;9944;48.240;16.478;2022-08-26T09:16:10;11.73;;;6.18;;
19593;SDS011;9944;48.240;16.478;2022-08-26T09:20:24;11.20;;;6.18;;
19593;SDS011;9944;48.240;16.478;2022-08-26T09:24:38;9.82;;;4.85;;
19593;SDS011;9944;48.240;16.478;2022-08-26T09:28:53;6.85;;;4.75;;
19593;SDS011;9944;48.240;16.478;2022-08-26T09:32:59;7.70;;;4.75;;
19593;SDS011;9944;48.240;16.478;2022-08-26T09:37:13;8.65;;;4.80;;
19593;SDS011;9944;48.240;16.478;2022-08-26T09:41:36;4.82;;;3.67;;
19593;SDS011;9944;48.240;16.478;2022-08-26T09:45:40;8.18;;;3.90;;
19593;SDS011;9944;48.240;16.478;2022-08-26T09:49:59;6.70;;;4.43;;
19593;SDS011;9944;48.240;16.478;2022-08-26T09:54:16;7.35;;;3.92;;
19593;SDS011;9944;48.240;16.478;2022-08-26T09:58:34;5.35;;;3.70;;
19593;SDS011;9944;48.240;16.478;2022-08-26T10:02:39;8.20;;;4.30;;
19593;SDS011;9944;48.240;16.478;2022-08-26T10:06:54;7.05;;;4.15;;
19593;SDS011;9944;48.240;16.478;2022-08-26T10:11:01;6.43;;;4.30;;
19593;SDS011;9944;48.240;16.478;2022-08-26T10:15:09;8.60;;;4.45;;
19593;SDS011;9944;48.240;16.478;2022-08-26T10:19:15;5.90;;;3.97;;
19593;SDS011;9944;48.240;16.478;2022-08-26T10:23:23;5.28;;;3.90;;
19593;SDS011;9944;48.240;16.478;2022-08-26T10:27:32;4.97;;;4.00;;
19593;SDS011;9944;48.240;16.478;2022-08-26T10:31:55;6.10;;;3.70;;
19593;SDS011;9944;48.240;16.478;2022-08-26T10:36:05;6.68;;;4.30;;
19593;SDS011;9944;48.240;16.478;2022-08-26T10:40:45;6.72;;;3.97;;
19593;SDS011;9944;48.240;16.478;2022-08-26T10:45:00;7.68;;;4.25;;
19593;SDS011;9944;48.240;16.478;2022-08-26T10:49:15;5.85;;;4.25;;
19593;SDS011;9944;48.240;16.478;2022-08-26T10:53:21;6.93;;;4.03;;
19593;SDS011;9944;48.240;16.478;2022-08-26T10:57:36;8.10;;;4.10;;
19593;SDS011;9944;48.240;16.478;2022-08-26T11:01:48;7.47;;;4.25;;
19593;SDS011;9944;48.240;16.478;2022-08-26T11:15:03;6.15;;;4.03;;
19593;SDS011;9944;48.240;16.478;2022-08-26T11:19:11;9.27;;;3.97;;
19593;SDS011;9944;48.240;16.478;2022-08-26T11:24:04;5.85;;;4.22;;
19593;SDS011;9944;48.240;16.478;2022-08-26T11:28:07;6.22;;;3.90;;
19593;SDS011;9944;48.240;16.478;2022-08-26T11:32:22;4.35;;;3.47;;
19593;SDS011;9944;48.240;16.478;2022-08-26T11:36:37;4.30;;;2.85;;
19593;SDS011;9944;48.240;16.478;2022-08-26T11:40:49;6.45;;;3.08;;
19593;SDS011;9944;48.240;16.478;2022-08-26T11:44:59;4.35;;;3.20;;
19593;SDS011;9944;48.240;16.478;2022-08-26T11:49:06;4.30;;;2.80;;
19593;SDS011;9944;48.240;16.478;2022-08-26T11:53:09;7.13;;;3.47;;
19593;SDS011;9944;48.240;16.478;2022-08-26T11:57:21;5.05;;;3.25;;
19593;SDS011;9944;48.240;16.478;2022-08-26T12:01:25;5.10;;;3.60;;
19593;SDS011;9944;48.240;16.478;2022-08-26T12:05:33;9.00;;;3.25;;
19593;SDS011;9944;48.240;16.478;2022-08-26T12:09:50;7.95;;;3.53;;
19593;SDS011;9944;48.240;16.478;2022-08-26T12:13:58;4.82;;;2.97;;
19593;SDS011;9944;48.240;16.478;2022-08-26T12:18:16;7.47;;;3.60;;
19593;SDS011;9944;48.240;16.478;2022-08-26T12:22:31;6.38;;;3.22;;
19593;SDS011;9944;48.240;16.478;2022-08-26T12:26:36;6.90;;;3.30;;
19593;SDS011;9944;48.240;16.478;2022-08-26T12:30:41;6.53;;;3.35;;
19593;SDS011;9944;48.240;16.478;2022-08-26T12:35:01;3.72;;;2.80;;
19593;SDS011;9944;48.240;16.478;2022-08-26T12:39:08;5.90;;;3.08;;
19593;SDS011;9944;48.240;16.478;2022-08-26T12:43:17;6.88;;;3.03;;
19593;SDS011;9944;48.240;16.478;2022-08-26T12:47:40;7.75;;;3.42;;
19593;SDS011;9944;48.240;16.478;2022-08-26T12:51:47;4.18;;;2.72;;
19593;SDS011;9944;48.240;16.478;2022-08-26T12:55:52;7.05;;;2.95;;
19593;SDS011;9944;48.240;16.478;2022-08-26T13:04:42;4.53;;;2.78;;
19593;SDS011;9944;48.240;16.478;2022-08-26T13:08:47;6.95;;;2.60;;
19593;SDS011;9944;48.240;16.478;2022-08-26T13:12:51;4.53;;;2.60;;
19593;SDS011;9944;48.240;16.478;2022-08-26T13:16:55;4.95;;;2.55;;
19593;SDS011;9944;48.240;16.478;2022-08-26T13:21:06;6.60;;;2.53;;
19593;SDS011;9944;48.240;16.478;2022-08-26T13:25:10;3.40;;;2.30;;
19593;SDS011;9944;48.240;16.478;2022-08-26T13:29:13;6.15;;;2.72;;
19593;SDS011;9944;48.240;16.478;2022-08-26T13:33:17;5.28;;;2.70;;
19593;SDS011;9944;48.240;16.478;2022-08-26T13:37:23;6.88;;;2.70;;
19593;SDS011;9944;48.240;16.478;2022-08-26T13:41:35;6.28;;;2.80;;
19593;SDS011;9944;48.240;16.478;2022-08-26T13:45:38;7.80;;;2.85;;
19593;SDS011;9944;48.240;16.478;2022-08-26T13:49:41;6.32;;;3.00;;
19593;SDS011;9944;48.240;16.478;2022-08-26T13:53:46;6.13;;;2.75;;
19593;SDS011;9944;48.240;16.478;2022-08-26T13:57:49;7.90;;;2.92;;
19593;SDS011;9944;48.240;16.478;2022-08-26T14:01:52;6.43;;;2.55;;
19593;SDS011;9944;48.240;16.478;2022-08-26T14:05:56;4.20;;;2.65;;
19593;SDS011;9944;48.240;16.478;2022-08-26T14:10:01;4.43;;;2.20;;
19593;SDS011;9944;48.240;16.478;2022-08-26T14:14:04;3.10;;;2.25;;
19593;SDS011;9944;48.240;16.478;2022-08-26T14:18:08;6.65;;;3.05;;
19593;SDS011;9944;48.240;16.478;2022-08-26T14:22:18;3.97;;;2.65;;
19593;SDS011;9944;48.240;16.478;2022-08-26T14:26:24;8.10;;;2.90;;
19593;SDS011;9944;48.240;16.478;2022-08-26T14:30:30;3.47;;;2.53;;
19593;SDS011;9944;48.240;16.478;2022-08-26T14:34:33;6.70;;;2.60;;
19593;SDS011;9944;48.240;16.478;2022-08-26T14:38:36;3.63;;;2.30;;
19593;SDS011;9944;48.240;16.478;2022-08-26T14:42:41;6.30;;;2.80;;
19593;SDS011;9944;48.240;16.478;2022-08-26T14:46:53;4.43;;;2.65;;
19593;SDS011;9944;48.240;16.478;2022-08-26T14:50:56;4.15;;;2.70;;
19593;SDS011;9944;48.240;16.478;2022-08-26T14:54:59;4.40;;;2.65;;
19593;SDS011;9944;48.240;16.478;2022-08-26T14:59:04;3.47;;;2.83;;
19593;SDS011;9944;48.240;16.478;2022-08-26T15:03:07;3.15;;;2.70;;
19593;SDS011;9944;48.240;16.478;2022-08-26T15:07:10;3.00;;;2.70;;
19593;SDS011;9944;48.240;16.478;2022-08-26T15:11:13;3.33;;;2.33;;
19593;SDS011;9944;48.240;16.478;2022-08-26T15:15:20;4.50;;;2.40;;
19593;SDS011;9944;48.240;16.478;2022-08-26T15:19:23;5.93;;;2.53;;
19593;SDS011;9944;48.240;16.478;2022-08-26T15:23:27;10.02;;;3.20;;
19593;SDS011;9944;48.240;16.478;2022-08-26T15:27:31;7.97;;;2.53;;
19593;SDS011;9944;48.240;16.478;2022-08-26T15:31:35;5.75;;;3.03;;
19593;SDS011;9944;48.240;16.478;2022-08-26T15:35:39;6.88;;;2.58;;
19593;SDS011;9944;48.240;16.478;2022-08-26T15:39:43;4.60;;;2.30;;
19593;SDS011;9944;48.240;16.478;2022-08-26T15:43:46;5.38;;;2.70;;
19593;SDS011;9944;48.240;16.478;2022-08-26T15:47:51;5.35;;;2.10;;
19593;SDS011;9944;48.240;16.478;2022-08-26T15:52:03;4.88;;;2.30;;
19593;SDS011;9944;48.240;16.478;2022-08-26T15:56:06;5.95;;;2.80;;
19593;SDS011;9944;48.240;16.478;2022-08-26T16:00:11;3.45;;;2.20;;
19593;SDS011;9944;48.240;16.478;2022-08-26T16:04:16;4.70;;;2.70;;
19593;SDS011;9944;48.240;16.478;2022-08-26T16:08:20;4.32;;;2.22;;
19593;SDS011;9944;48.240;16.478;2022-08-26T16:12:23;6.63;;;2.90;;
19593;SDS011;9944;48.240;16.478;2022-08-26T16:16:27;5.43;;;2.70;;
19593;SDS011;9944;48.240;16.478;2022-08-26T16:20:32;3.50;;;2.40;;
19593;SDS011;9944;48.240;16.478;2022-08-26T16:24:37;4.40;;;2.45;;
19593;SDS011;9944;48.240;16.478;2022-08-26T16:28:41;4.00;;;2.58;;
19593;SDS011;9944;48.240;16.478;2022-08-26T16:32:44;6.05;;;2.28;;
19593;SDS011;9944;48.240;16.478;2022-08-26T16:36:49;2.97;;;2.22;;
19593;SDS011;9944;48.240;16.478;2022-08-26T16:40:53;5.75;;;2.72;;
19593;SDS011;9944;48.240;16.478;2022-08-26T16:44:56;6.60;;;2.58;;
19593;SDS011;9944;48.240;16.478;2022-08-26T16:49:00;5.38;;;2.67;;
19593;SDS011;9944;48.240;16.478;2022-08-26T16:53:07;5.63;;;2.42;;
19593;SDS011;9944;48.240;16.478;2022-08-26T16:57:15;4.70;;;2.42;;
19593;SDS011;9944;48.240;16.478;2022-08-26T17:01:18;6.97;;;2.78;;
19593;SDS011;9944;48.240;16.478;2022-08-26T17:05:22;4.35;;;2.80;;
19593;SDS011;9944;48.240;16.478;2022-08-26T17:09:28;8.93;;;3.85;;
19593;SDS011;9944;48.240;16.478;2022-08-26T17:13:32;3.17;;;2.55;;
19593;SDS011;9944;48.240;16.478;2022-08-26T17:17:36;4.13;;;2.80;;
19593;SDS011;9944;48.240;16.478;2022-08-26T17:21:41;4.72;;;2.70;;
19593;SDS011;9944;48.240;16.478;2022-08-26T17:25:46;4.50;;;2.55;;
19593;SDS011;9944;48.240;16.478;2022-08-26T17:29:50;4.68;;;3.05;;
19593;SDS011;9944;48.240;16.478;2022-08-26T17:33:53;5.60;;;2.90;;
19593;SDS011;9944;48.240;16.478;2022-08-26T17:37:57;4.43;;;3.20;;
19593;SDS011;9944;48.240;16.478;2022-08-26T17:42:02;3.90;;;2.80;;
19593;SDS011;9944;48.240;16.478;2022-08-26T17:46:07;4.70;;;2.88;;
19593;SDS011;9944;48.240;16.478;2022-08-26T17:50:13;5.88;;;3.40;;
19593;SDS011;9944;48.240;16.478;2022-08-26T17:54:18;5.43;;;3.13;;
19593;SDS011;9944;48.240;16.478;2022-08-26T17:58:23;3.72;;;3.20;;
19593;SDS011;9944;48.240;16.478;2022-08-26T18:02:29;6.22;;;3.60;;
19593;SDS011;9944;48.240;16.478;2022-08-26T18:06:32;6.22;;;3.58;;
19593;SDS011;9944;48.240;16.478;2022-08-26T18:10:36;5.15;;;3.42;;
19593;SDS011;9944;48.240;16.478;2022-08-26T18:14:41;4.60;;;3.50;;
19593;SDS011;9944;48.240;16.478;2022-08-26T18:18:44;4.65;;;3.60;;
19593;SDS011;9944;48.240;16.478;2022-08-26T18:22:48;6.40;;;3.45;;
19593;SDS011;9944;48.240;16.478;2022-08-26T18:26:51;4.18;;;3.20;;
19593;SDS011;9944;48.240;16.478;2022-08-26T18:30:56;4.43;;;3.63;;
19593;SDS011;9944;48.240;16.478;2022-08-26T18:34:59;7.32;;;4.03;;
19593;SDS011;9944;48.240;16.478;2022-08-26T18:39:03;6.20;;;3.65;;
19593;SDS011;9944;48.240;16.478;2022-08-26T18:43:07;6.40;;;4.40;;
19593;SDS011;9944;48.240;16.478;2022-08-26T18:47:12;8.60;;;4.20;;
19593;SDS011;9944;48.240;16.478;2022-08-26T18:51:15;6.38;;;4.32;;
19593;SDS011;9944;48.240;16.478;2022-08-26T18:55:19;8.98;;;4.45;;
19593;SDS011;9944;48.240;16.478;2022-08-26T18:59:22;7.35;;;4.88;;
19593;SDS011;9944;48.240;16.478;2022-08-26T19:03:32;6.90;;;4.22;;
19593;SDS011;9944;48.240;16.478;2022-08-26T19:07:35;5.22;;;4.10;;
19593;SDS011;9944;48.240;16.478;2022-08-26T19:11:40;5.80;;;4.00;;
19593;SDS011;9944;48.240;16.478;2022-08-26T19:15:43;5.80;;;4.00;;
19593;SDS011;9944;48.240;16.478;2022-08-26T19:19:48;7.35;;;3.92;;
19593;SDS011;9944;48.240;16.478;2022-08-26T19:23:54;6.57;;;3.70;;
19593;SDS011;9944;48.240;16.478;2022-08-26T19:27:58;7.40;;;4.03;;
19593;SDS011;9944;48.240;16.478;2022-08-26T19:32:02;6.55;;;3.92;;
19593;SDS011;9944;48.240;16.478;2022-08-26T19:36:08;8.70;;;4.03;;
19593;SDS011;9944;48.240;16.478;2022-08-26T19:40:16;7.18;;;4.13;;
19593;SDS011;9944;48.240;16.478;2022-08-26T19:44:20;5.18;;;4.13;;
19593;SDS011;9944;48.240;16.478;2022-08-26T19:48:42;6.78;;;3.92;;
19593;SDS011;9944;48.240;16.478;2022-08-26T19:52:47;6.80;;;4.78;;
19593;SDS011;9944;48.240;16.478;2022-08-26T19:56:50;5.95;;;3.88;;
19593;SDS011;9944;48.240;16.478;2022-08-26T20:00:54;7.32;;;4.40;;
19593;SDS011;9944;48.240;16.478;2022-08-26T20:04:57;7.55;;;3.88;;
19593;SDS011;9944;48.240;16.478;2022-08-26T20:09:02;5.50;;;4.10;;
19593;SDS011;9944;48.240;16.478;2022-08-26T20:13:05;5.10;;;3.90;;
19593;SDS011;9944;48.240;16.478;2022-08-26T20:17:09;7.60;;;4.13;;
19593;SDS011;9944;48.240;16.478;2022-08-26T20:21:13;7.10;;;4.50;;
19593;SDS011;9944;48.240;16.478;2022-08-26T20:25:30;8.65;;;3.97;;
19593;SDS011;9944;48.240;16.478;2022-08-26T20:29:34;9.93;;;4.15;;
19593;SDS011;9944;48.240;16.478;2022-08-26T20:33:38;9.45;;;4.38;;
19593;SDS011;9944;48.240;16.478;2022-08-26T20:37:47;6.05;;;4.57;;
19593;SDS011;9944;48.240;16.478;2022-08-26T20:41:51;6.10;;;4.18;;
19593;SDS011;9944;48.240;16.478;2022-08-26T20:45:55;8.05;;;4.75;;
19593;SDS011;9944;48.240;16.478;2022-08-26T20:49:59;6.60;;;4.40;;
19593;SDS011;9944;48.240;16.478;2022-08-26T20:54:03;7.45;;;4.68;;
19593;SDS011;9944;48.240;16.478;2022-08-26T20:58:09;7.32;;;4.38;;
19593;SDS011;9944;48.240;16.478;2022-08-26T21:02:12;5.68;;;4.60;;
19593;SDS011;9944;48.240;16.478;2022-08-26T21:06:15;6.55;;;4.68;;
19593;SDS011;9944;48.240;16.478;2022-08-26T21:10:19;6.30;;;4.38;;
19593;SDS011;9944;48.240;16.478;2022-08-26T21:14:25;6.93;;;4.75;;
19593;SDS011;9944;48.240;16.478;2022-08-26T21:18:28;5.97;;;4.50;;
19593;SDS011;9944;48.240;16.478;2022-08-26T21:22:32;7.90;;;4.47;;
19593;SDS011;9944;48.240;16.478;2022-08-26T21:26:35;6.90;;;4.38;;
19593;SDS011;9944;48.240;16.478;2022-08-26T21:30:40;5.68;;;4.10;;
19593;SDS011;9944;48.240;16.478;2022-08-26T21:34:44;6.07;;;4.13;;
19593;SDS011;9944;48.240;16.478;2022-08-26T21:38:47;4.82;;;4.05;;
19593;SDS011;9944;48.240;16.478;2022-08-26T21:42:50;10.32;;;4.30;;
19593;SDS011;9944;48.240;16.478;2022-08-26T21:46:55;6.85;;;4.40;;
19593;SDS011;9944;48.240;16.478;2022-08-26T21:50:58;8.15;;;4.45;;
19593;SDS011;9944;48.240;16.478;2022-08-26T21:55:02;10.00;;;4.50;;
19593;SDS011;9944;48.240;16.478;2022-08-26T21:59:09;7.70;;;4.20;;
19593;SDS011;9944;48.240;16.478;2022-08-26T22:03:15;7.32;;;4.03;;
19593;SDS011;9944;48.240;16.478;2022-08-26T22:07:19;5.70;;;3.72;;
19593;SDS011;9944;48.240;16.478;2022-08-26T22:11:22;7.05;;;3.55;;
19593;SDS011;9944;48.240;16.478;2022-08-26T22:15:27;3.78;;;3.15;;
19593;SDS011;9944;48.240;16.478;2022-08-26T22:19:35;4.45;;;3.10;;
19593;SDS011;9944;48.240;16.478;2022-08-26T22:23:47;6.50;;;3.53;;
19593;SDS011;9944;48.240;16.478;2022-08-26T22:27:51;4.35;;;3.22;;
19593;SDS011;9944;48.240;16.478;2022-08-26T22:31:54;4.38;;;3.10;;
19593;SDS011;9944;48.240;16.478;2022-08-26T22:36:00;4.85;;;3.35;;
19593;SDS011;9944;48.240;16.478;2022-08-26T22:40:03;5.53;;;3.53;;
19593;SDS011;9944;48.240;16.478;2022-08-26T22:44:09;4.25;;;3.10;;
19593;SDS011;9944;48.240;16.478;2022-08-26T22:48:14;3.88;;;3.00;;
19593;SDS011;9944;48.240;16.478;2022-08-26T22:52:20;3.67;;;3.00;;
19593;SDS011;9944;48.240;16.478;2022-08-26T22:56:23;5.97;;;2.83;;
19593;SDS011;9944;48.240;16.478;2022-08-26T23:00:27;5.82;;;3.20;;
19593;SDS011;9944;48.240;16.478;2022-08-26T23:04:33;4.40;;;2.88;;
19593;SDS011;9944;48.240;16.478;2022-08-26T23:08:38;5.15;;;2.88;;
19593;SDS011;9944;48.240;16.478;2022-08-26T23:12:43;4.00;;;3.15;;
19593;SDS011;9944;48.240;16.478;2022-08-26T23:16:46;3.72;;;2.88;;
19593;SDS011;9944;48.240;16.478;2022-08-26T23:20:53;5.03;;;3.10;;
19593;SDS011;9944;48.240;16.478;2022-08-26T23:24:59;4.03;;;2.90;;
19593;SDS011;9944;48.240;16.478;2022-08-26T23:29:08;3.92;;;3.22;;
19593;SDS011;9944;48.240;16.478;2022-08-26T23:33:13;4.93;;;3.38;;
19593;SDS011;9944;48.240;16.478;2022-08-26T23:37:17;4.68;;;3.15;;
19593;SDS011;9944;48.240;16.478;2022-08-26T23:41:23;3.53;;;3.10;;
19593;SDS011;9944;48.240;16.478;2022-08-26T23:45:26;3.92;;;3.05;;
19593;SDS011;9944;48.240;16.478;2022-08-26T23:49:30;3.60;;;3.00;;
19593;SDS011;9944;48.240;16.478;2022-08-26T23:53:36;5.97;;;3.78;;
19593;SDS011;9944;48.240;16.478;2022-08-26T23:57:41;4.22;;;3.35;;
